sensor_id;sensor_type;location;lat;lon;timestamp;pressure;altitude;pressure_sealevel;temperature;humidity
24234;BME280;12365;43.554;1.388;2022-10-17T00:00:36;99986.78;;;24.10;59.88
24234;BME280;12365;43.554;1.388;2022-10-17T00:03:01;99984.13;;;24.11;60.19
24234;BME280;12365;43.554;1.388;2022-10-17T00:05:27;99985.91;;;24.12;60.07
24234;BME280;12365;43.554;1.388;2022-10-17T00:07:52;99980.56;;;24.12;60.18
24234;BME280;12365;43.554;1.388;2022-10-17T00:10:19;99989.44;;;24.13;59.95
24234;BME280;12365;43.554;1.388;2022-10-17T00:12:44;99991.22;;;24.12;59.94
24234;BME280;12365;43.554;1.388;2022-10-17T00:15:14;99987.69;;;24.13;59.88
24234;BME280;12365;43.554;1.388;2022-10-17T00:17:39;99984.09;;;24.13;59.87
24234;BME280;12365;43.554;1.388;2022-10-17T00:20:06;99994.81;;;24.11;60.23
24234;BME280;12365;43.554;1.388;2022-10-17T00:22:32;99993.91;;;24.09;60.10
24234;BME280;12365;43.554;1.388;2022-10-17T00:24:57;100001.91;;;24.12;59.92
24234;BME280;12365;43.554;1.388;2022-10-17T00:27:23;99992.13;;;24.14;59.91
24234;BME280;12365;43.554;1.388;2022-10-17T00:29:49;100001.03;;;24.13;60.13
24234;BME280;12365;43.554;1.388;2022-10-17T00:32:15;100005.44;;;24.14;60.22
24234;BME280;12365;43.554;1.388;2022-10-17T00:34:41;100001.91;;;24.14;60.32
24234;BME280;12365;43.554;1.388;2022-10-17T00:37:06;99996.56;;;24.14;60.32
24234;BME280;12365;43.554;1.388;2022-10-17T00:39:31;100003.69;;;24.13;60.26
24234;BME280;12365;43.554;1.388;2022-10-17T00:41:57;100002.78;;;24.13;60.35
24234;BME280;12365;43.554;1.388;2022-10-17T00:47:03;100008.13;;;24.11;60.25
24234;BME280;12365;43.554;1.388;2022-10-17T00:49:32;100012.56;;;24.09;60.38
24234;BME280;12365;43.554;1.388;2022-10-17T00:52:01;100017.03;;;24.07;60.29
24234;BME280;12365;43.554;1.388;2022-10-17T00:54:31;100027.69;;;24.09;60.12
24234;BME280;12365;43.554;1.388;2022-10-17T00:56:58;100021.47;;;24.07;60.46
24234;BME280;12365;43.554;1.388;2022-10-17T00:59:24;100024.16;;;24.08;60.51
24234;BME280;12365;43.554;1.388;2022-10-17T01:01:59;100017.91;;;24.12;60.20
24234;BME280;12365;43.554;1.388;2022-10-17T01:04:25;100028.56;;;24.09;60.28
24234;BME280;12365;43.554;1.388;2022-10-17T01:06:50;100024.13;;;24.10;60.22
24234;BME280;12365;43.554;1.388;2022-10-17T01:09:16;100017.91;;;24.09;60.36
24234;BME280;12365;43.554;1.388;2022-10-17T01:17:32;100019.66;;;24.10;60.50
24234;BME280;12365;43.554;1.388;2022-10-17T01:20:18;100011.69;;;24.09;60.29
24234;BME280;12365;43.554;1.388;2022-10-17T01:25:51;100037.47;;;24.11;60.33
24234;BME280;12365;43.554;1.388;2022-10-17T01:31:14;100019.69;;;24.13;60.17
24234;BME280;12365;43.554;1.388;2022-10-17T01:34:03;100025.91;;;24.14;60.41
24234;BME280;12365;43.554;1.388;2022-10-17T01:42:01;100041.91;;;24.14;60.32
24234;BME280;12365;43.554;1.388;2022-10-17T01:44:50;100025.03;;;24.13;60.36
24234;BME280;12365;43.554;1.388;2022-10-17T01:47:21;100032.13;;;24.14;60.20
24234;BME280;12365;43.554;1.388;2022-10-17T01:49:50;100026.78;;;24.14;60.37
24234;BME280;12365;43.554;1.388;2022-10-17T01:52:22;100030.34;;;24.16;60.35
24234;BME280;12365;43.554;1.388;2022-10-17T01:55:02;100026.75;;;24.17;60.29
24234;BME280;12365;43.554;1.388;2022-10-17T01:57:38;100016.06;;;24.20;60.31
24234;BME280;12365;43.554;1.388;2022-10-17T02:00:08;100014.34;;;24.16;60.29
24234;BME280;12365;43.554;1.388;2022-10-17T02:02:36;100004.53;;;24.20;60.00
24234;BME280;12365;43.554;1.388;2022-10-17T02:05:02;99999.22;;;24.18;60.22
24234;BME280;12365;43.554;1.388;2022-10-17T02:07:28;99978.75;;;24.17;59.87
24234;BME280;12365;43.554;1.388;2022-10-17T02:09:54;99990.31;;;24.18;60.25
24234;BME280;12365;43.554;1.388;2022-10-17T02:12:53;99996.53;;;24.21;59.90
24234;BME280;12365;43.554;1.388;2022-10-17T02:15:40;99979.66;;;24.21;59.82
24234;BME280;12365;43.554;1.388;2022-10-17T02:21:14;99989.41;;;24.20;59.80
24234;BME280;12365;43.554;1.388;2022-10-17T02:24:01;99976.97;;;24.18;59.72
24234;BME280;12365;43.554;1.388;2022-10-17T02:26:39;99979.66;;;24.19;59.92
24234;BME280;12365;43.554;1.388;2022-10-17T02:29:18;99976.97;;;24.19;59.48
24234;BME280;12365;43.554;1.388;2022-10-17T02:31:50;99969.88;;;24.18;59.66
24234;BME280;12365;43.554;1.388;2022-10-17T02:34:33;99964.53;;;24.20;59.49
24234;BME280;12365;43.554;1.388;2022-10-17T02:37:02;99960.09;;;24.19;59.54
24234;BME280;12365;43.554;1.388;2022-10-17T02:39:30;99969.88;;;24.18;59.28
24234;BME280;12365;43.554;1.388;2022-10-17T02:42:02;99977.88;;;24.18;59.27
24234;BME280;12365;43.554;1.388;2022-10-17T02:44:30;99995.66;;;24.16;59.41
24234;BME280;12365;43.554;1.388;2022-10-17T02:47:04;100005.44;;;24.17;59.29
24234;BME280;12365;43.554;1.388;2022-10-17T02:49:38;100021.44;;;24.17;59.28
24234;BME280;12365;43.554;1.388;2022-10-17T02:52:10;100016.97;;;24.18;59.28
24234;BME280;12365;43.554;1.388;2022-10-17T02:57:30;100019.66;;;24.18;59.39
24234;BME280;12365;43.554;1.388;2022-10-17T02:59:57;100017.88;;;24.17;59.33
24234;BME280;12365;43.554;1.388;2022-10-17T03:02:23;100012.53;;;24.15;59.08
24234;BME280;12365;43.554;1.388;2022-10-17T03:04:49;100012.53;;;24.15;59.31
24234;BME280;12365;43.554;1.388;2022-10-17T03:07:15;100023.22;;;24.15;59.05
24234;BME280;12365;43.554;1.388;2022-10-17T03:09:40;100012.53;;;24.15;59.24
24234;BME280;12365;43.554;1.388;2022-10-17T03:12:06;100006.34;;;24.13;59.35
24234;BME280;12365;43.554;1.388;2022-10-17T03:14:31;99989.44;;;24.14;59.37
24234;BME280;12365;43.554;1.388;2022-10-17T03:16:56;100009.03;;;24.13;58.91
24234;BME280;12365;43.554;1.388;2022-10-17T03:19:22;100010.78;;;24.13;58.84
24234;BME280;12365;43.554;1.388;2022-10-17T03:21:47;100011.66;;;24.15;59.14
24234;BME280;12365;43.554;1.388;2022-10-17T03:24:12;99993.91;;;24.14;59.05
24234;BME280;12365;43.554;1.388;2022-10-17T03:26:38;100008.13;;;24.14;58.98
24234;BME280;12365;43.554;1.388;2022-10-17T03:29:03;100011.69;;;24.13;58.69
24234;BME280;12365;43.554;1.388;2022-10-17T03:31:29;100008.09;;;24.13;58.87
24234;BME280;12365;43.554;1.388;2022-10-17T03:33:54;100000.13;;;24.11;58.83
24234;BME280;12365;43.554;1.388;2022-10-17T03:36:20;100009.00;;;24.10;59.00
24234;BME280;12365;43.554;1.388;2022-10-17T03:38:46;100014.38;;;24.09;58.68
24234;BME280;12365;43.554;1.388;2022-10-17T03:41:12;100022.38;;;24.09;58.65
24234;BME280;12365;43.554;1.388;2022-10-17T03:43:38;100040.16;;;24.08;58.61
24234;BME280;12365;43.554;1.388;2022-10-17T03:46:04;100035.69;;;24.07;58.77
24234;BME280;12365;43.554;1.388;2022-10-17T03:48:30;100028.59;;;24.06;58.73
24234;BME280;12365;43.554;1.388;2022-10-17T03:51:02;100026.78;;;24.05;58.61
24234;BME280;12365;43.554;1.388;2022-10-17T03:53:28;100035.69;;;24.02;58.67
24234;BME280;12365;43.554;1.388;2022-10-17T03:55:54;100031.25;;;24.01;58.61
24234;BME280;12365;43.554;1.388;2022-10-17T03:58:19;100027.72;;;23.99;58.89
24234;BME280;12365;43.554;1.388;2022-10-17T04:00:45;100027.72;;;23.99;58.65
24234;BME280;12365;43.554;1.388;2022-10-17T04:03:10;100039.25;;;24.00;58.78
24234;BME280;12365;43.554;1.388;2022-10-17T04:05:35;100035.72;;;23.98;58.56
24234;BME280;12365;43.554;1.388;2022-10-17T04:08:01;100044.63;;;23.95;58.80
24234;BME280;12365;43.554;1.388;2022-10-17T04:10:26;100035.72;;;23.96;58.82
24234;BME280;12365;43.554;1.388;2022-10-17T04:12:52;100043.72;;;23.96;58.56
24234;BME280;12365;43.554;1.388;2022-10-17T04:15:17;100051.72;;;23.95;58.79
24234;BME280;12365;43.554;1.388;2022-10-17T04:17:42;100051.72;;;23.92;58.78
24234;BME280;12365;43.554;1.388;2022-10-17T04:20:08;100056.19;;;23.91;58.66
24234;BME280;12365;43.554;1.388;2022-10-17T04:22:34;100051.72;;;23.87;58.70
24234;BME280;12365;43.554;1.388;2022-10-17T04:24:59;100058.84;;;23.87;58.74
24234;BME280;12365;43.554;1.388;2022-10-17T04:27:24;100064.19;;;23.85;58.77
24234;BME280;12365;43.554;1.388;2022-10-17T04:29:50;100046.44;;;23.83;58.80
24234;BME280;12365;43.554;1.388;2022-10-17T04:32:15;100057.09;;;23.83;59.00
24234;BME280;12365;43.554;1.388;2022-10-17T04:34:41;100056.19;;;23.81;58.78
24234;BME280;12365;43.554;1.388;2022-10-17T04:37:06;100057.97;;;23.82;58.82
24234;BME280;12365;43.554;1.388;2022-10-17T04:39:32;100054.41;;;23.84;58.98
24234;BME280;12365;43.554;1.388;2022-10-17T04:41:57;100065.94;;;23.85;58.84
24234;BME280;12365;43.554;1.388;2022-10-17T04:44:22;100059.75;;;23.86;58.79
24234;BME280;12365;43.554;1.388;2022-10-17T04:46:48;100064.19;;;23.87;58.90
24234;BME280;12365;43.554;1.388;2022-10-17T04:49:13;100070.38;;;23.87;58.84
24234;BME280;12365;43.554;1.388;2022-10-17T04:51:39;100073.06;;;23.89;58.79
24234;BME280;12365;43.554;1.388;2022-10-17T04:54:04;100076.63;;;23.88;59.00
24234;BME280;12365;43.554;1.388;2022-10-17T04:56:30;100076.63;;;23.88;59.09
24234;BME280;12365;43.554;1.388;2022-10-17T04:58:57;100078.41;;;23.89;58.84
24234;BME280;12365;43.554;1.388;2022-10-17T05:01:23;100079.28;;;23.89;59.13
24234;BME280;12365;43.554;1.388;2022-10-17T05:03:49;100097.06;;;23.90;58.86
24234;BME280;12365;43.554;1.388;2022-10-17T05:06:16;100108.59;;;23.89;58.87
24234;BME280;12365;43.554;1.388;2022-10-17T05:08:43;100109.47;;;23.90;58.80
24234;BME280;12365;43.554;1.388;2022-10-17T05:11:17;100118.38;;;23.92;59.03
24234;BME280;12365;43.554;1.388;2022-10-17T05:13:43;100115.69;;;23.92;59.09
24234;BME280;12365;43.554;1.388;2022-10-17T05:16:08;100121.03;;;23.92;58.89
24234;BME280;12365;43.554;1.388;2022-10-17T05:18:35;100121.03;;;23.89;58.94
24234;BME280;12365;43.554;1.388;2022-10-17T05:21:02;100126.38;;;23.89;58.99
24234;BME280;12365;43.554;1.388;2022-10-17T05:23:28;100134.38;;;23.89;58.99
24234;BME280;12365;43.554;1.388;2022-10-17T05:25:54;100140.59;;;23.88;58.90
24234;BME280;12365;43.554;1.388;2022-10-17T05:28:20;100142.34;;;23.87;59.04
24234;BME280;12365;43.554;1.388;2022-10-17T05:30:46;100149.50;;;23.85;59.09
24234;BME280;12365;43.554;1.388;2022-10-17T05:33:11;100156.59;;;23.88;58.94
24234;BME280;12365;43.554;1.388;2022-10-17T05:35:36;100151.25;;;23.88;59.00
24234;BME280;12365;43.554;1.388;2022-10-17T05:38:02;100160.13;;;23.90;58.87
24234;BME280;12365;43.554;1.388;2022-10-17T05:40:27;100158.38;;;23.90;59.12
24234;BME280;12365;43.554;1.388;2022-10-17T05:42:52;100157.44;;;23.90;58.76
24234;BME280;12365;43.554;1.388;2022-10-17T05:45:18;100169.91;;;23.89;58.96
24234;BME280;12365;43.554;1.388;2022-10-17T05:47:43;100159.25;;;23.89;58.85
24234;BME280;12365;43.554;1.388;2022-10-17T05:50:09;100169.03;;;23.90;58.81
24234;BME280;12365;43.554;1.388;2022-10-17T05:52:34;100158.34;;;23.89;59.06
24234;BME280;12365;43.554;1.388;2022-10-17T05:55:00;100157.47;;;23.88;59.00
24234;BME280;12365;43.554;1.388;2022-10-17T05:57:26;100178.78;;;23.87;59.13
24234;BME280;12365;43.554;1.388;2022-10-17T05:59:51;100172.56;;;23.85;59.03
24234;BME280;12365;43.554;1.388;2022-10-17T06:02:17;100167.22;;;23.85;59.19
24234;BME280;12365;43.554;1.388;2022-10-17T06:04:43;100175.25;;;23.83;59.16
24234;BME280;12365;43.554;1.388;2022-10-17T06:07:11;100171.69;;;23.83;59.04
24234;BME280;12365;43.554;1.388;2022-10-17T06:09:37;100168.13;;;23.79;59.34
24234;BME280;12365;43.554;1.388;2022-10-17T06:12:02;100171.69;;;23.81;59.32
24234;BME280;12365;43.554;1.388;2022-10-17T06:14:28;100176.13;;;23.81;59.08
24234;BME280;12365;43.554;1.388;2022-10-17T06:16:53;100169.91;;;23.78;59.28
24234;BME280;12365;43.554;1.388;2022-10-17T06:19:19;100171.66;;;23.79;59.18
24234;BME280;12365;43.554;1.388;2022-10-17T06:21:44;100181.47;;;23.81;59.16
24234;BME280;12365;43.554;1.388;2022-10-17T06:24:09;100171.69;;;23.76;59.26
24234;BME280;12365;43.554;1.388;2022-10-17T06:26:35;100180.56;;;23.80;59.28
24234;BME280;12365;43.554;1.388;2022-10-17T06:29:00;100185.00;;;23.79;59.32
24234;BME280;12365;43.554;1.388;2022-10-17T06:31:26;100194.78;;;23.81;59.33
24234;BME280;12365;43.554;1.388;2022-10-17T06:33:51;100194.78;;;23.81;59.34
24234;BME280;12365;43.554;1.388;2022-10-17T06:36:16;100198.34;;;23.83;59.40
24234;BME280;12365;43.554;1.388;2022-10-17T06:38:42;100192.13;;;23.84;59.41
24234;BME280;12365;43.554;1.388;2022-10-17T06:41:10;100197.44;;;23.84;59.46
24234;BME280;12365;43.554;1.388;2022-10-17T06:43:38;100198.34;;;23.86;59.45
24234;BME280;12365;43.554;1.388;2022-10-17T06:46:04;100191.25;;;23.88;59.14
24234;BME280;12365;43.554;1.388;2022-10-17T06:48:30;100185.91;;;23.91;59.37
24234;BME280;12365;43.554;1.388;2022-10-17T06:51:02;100179.69;;;23.96;59.27
24234;BME280;12365;43.554;1.388;2022-10-17T06:53:30;100180.56;;;24.03;59.01
24234;BME280;12365;43.554;1.388;2022-10-17T06:55:55;100186.81;;;24.08;58.82
24234;BME280;12365;43.554;1.388;2022-10-17T06:58:26;100199.22;;;24.15;58.95
24234;BME280;12365;43.554;1.388;2022-10-17T07:00:57;100209.00;;;24.24;58.81
24234;BME280;12365;43.554;1.388;2022-10-17T07:03:23;100205.44;;;24.31;58.91
24234;BME280;12365;43.554;1.388;2022-10-17T07:05:52;100201.84;;;24.40;58.61
24234;BME280;12365;43.554;1.388;2022-10-17T07:08:17;100212.53;;;24.51;58.62
24234;BME280;12365;43.554;1.388;2022-10-17T07:10:43;100224.97;;;24.58;58.50
24234;BME280;12365;43.554;1.388;2022-10-17T07:13:08;100226.75;;;24.63;58.06
24234;BME280;12365;43.554;1.388;2022-10-17T07:15:34;100243.63;;;24.69;57.88
24234;BME280;12365;43.554;1.388;2022-10-17T07:18:00;100246.31;;;24.75;57.92
24234;BME280;12365;43.554;1.388;2022-10-17T07:20:25;100260.50;;;24.83;58.12
24234;BME280;12365;43.554;1.388;2022-10-17T07:22:51;100257.84;;;24.89;57.69
24234;BME280;12365;43.554;1.388;2022-10-17T07:25:16;100264.03;;;25.02;57.80
24234;BME280;12365;43.554;1.388;2022-10-17T07:27:41;100273.78;;;25.15;57.25
24234;BME280;12365;43.554;1.388;2022-10-17T07:30:07;100273.78;;;25.23;57.57
24234;BME280;12365;43.554;1.388;2022-10-17T07:32:33;100265.72;;;25.32;56.99
24234;BME280;12365;43.554;1.388;2022-10-17T07:34:58;100255.00;;;25.38;56.82
24234;BME280;12365;43.554;1.388;2022-10-17T07:37:24;100266.59;;;25.37;56.79
24234;BME280;12365;43.554;1.388;2022-10-17T07:39:49;100279.00;;;25.44;57.00
24234;BME280;12365;43.554;1.388;2022-10-17T07:42:14;100263.81;;;25.54;56.91
24234;BME280;12365;43.554;1.388;2022-10-17T07:44:40;100273.56;;;25.66;56.19
24234;BME280;12365;43.554;1.388;2022-10-17T07:47:05;100273.50;;;25.72;56.32
24234;BME280;12365;43.554;1.388;2022-10-17T07:49:31;100277.91;;;25.82;56.30
24234;BME280;12365;43.554;1.388;2022-10-17T07:51:56;100273.44;;;25.90;55.81
24234;BME280;12365;43.554;1.388;2022-10-17T07:54:22;100272.50;;;25.96;56.07
24234;BME280;12365;43.554;1.388;2022-10-17T07:56:47;100277.84;;;25.99;55.67
24234;BME280;12365;43.554;1.388;2022-10-17T07:59:16;100271.69;;;25.86;55.67
24234;BME280;12365;43.554;1.388;2022-10-17T08:01:41;100274.41;;;25.72;55.70
24234;BME280;12365;43.554;1.388;2022-10-17T08:04:07;100271.78;;;25.65;55.89
24234;BME280;12365;43.554;1.388;2022-10-17T08:06:32;100266.44;;;25.62;55.91
24234;BME280;12365;43.554;1.388;2022-10-17T08:08:58;100258.44;;;25.62;55.94
24234;BME280;12365;43.554;1.388;2022-10-17T08:11:23;100263.81;;;25.60;56.04
24234;BME280;12365;43.554;1.388;2022-10-17T08:13:49;100263.78;;;25.57;55.92
24234;BME280;12365;43.554;1.388;2022-10-17T08:16:14;100268.25;;;25.58;56.34
24234;BME280;12365;43.554;1.388;2022-10-17T08:18:41;100290.53;;;25.59;56.16
24234;BME280;12365;43.554;1.388;2022-10-17T08:21:07;100303.00;;;25.63;55.86
24234;BME280;12365;43.554;1.388;2022-10-17T08:23:33;100301.16;;;25.69;56.09
24234;BME280;12365;43.554;1.388;2022-10-17T08:26:01;100302.03;;;25.76;55.52
24234;BME280;12365;43.554;1.388;2022-10-17T08:28:27;100302.91;;;25.77;55.83
24234;BME280;12365;43.554;1.388;2022-10-17T08:30:53;100296.63;;;25.82;55.45
24234;BME280;12365;43.554;1.388;2022-10-17T08:33:18;100297.53;;;25.86;55.77
24234;BME280;12365;43.554;1.388;2022-10-17T08:35:43;100292.16;;;25.89;55.33
24234;BME280;12365;43.554;1.388;2022-10-17T08:38:09;100297.50;;;25.92;55.56
24234;BME280;12365;43.554;1.388;2022-10-17T08:40:34;100296.59;;;25.96;55.53
24234;BME280;12365;43.554;1.388;2022-10-17T08:46:01;100299.28;;;25.93;55.22
24234;BME280;12365;43.554;1.388;2022-10-17T08:48:32;100293.97;;;25.87;55.13
24234;BME280;12365;43.554;1.388;2022-10-17T08:51:09;100303.78;;;25.77;55.32
24234;BME280;12365;43.554;1.388;2022-10-17T08:53:41;100308.28;;;25.70;55.28
24234;BME280;12365;43.554;1.388;2022-10-17T08:58:46;100334.19;;;25.58;55.70
24234;BME280;12365;43.554;1.388;2022-10-17T09:15:32;100381.34;;;25.72;55.56
24234;BME280;12365;43.554;1.388;2022-10-17T09:20:31;100380.47;;;25.75;55.33
24234;BME280;12365;43.554;1.388;2022-10-17T09:23:01;100390.22;;;25.79;55.49
24234;BME280;12365;43.554;1.388;2022-10-17T09:25:32;100405.38;;;25.83;55.21
24234;BME280;12365;43.554;1.388;2022-10-17T09:28:13;100420.56;;;25.86;54.99
24234;BME280;12365;43.554;1.388;2022-10-17T09:30:46;100431.22;;;25.89;55.24
24234;BME280;12365;43.554;1.388;2022-10-17T09:33:15;100425.88;;;25.89;55.11
24234;BME280;12365;43.554;1.388;2022-10-17T09:35:42;100416.06;;;25.89;55.06
24234;BME280;12365;43.554;1.388;2022-10-17T09:38:18;100424.97;;;25.94;54.81
24234;BME280;12365;43.554;1.388;2022-10-17T09:40:54;100432.09;;;25.99;54.74
24234;BME280;12365;43.554;1.388;2022-10-17T09:43:21;100423.16;;;26.01;55.06
24234;BME280;12365;43.554;1.388;2022-10-17T09:46:04;100440.09;;;26.00;54.67
24234;BME280;12365;43.554;1.388;2022-10-17T09:48:45;100451.69;;;26.01;54.96
24234;BME280;12365;43.554;1.388;2022-10-17T09:51:13;100463.28;;;26.01;54.82
24234;BME280;12365;43.554;1.388;2022-10-17T09:53:42;100466.84;;;25.97;54.64
24234;BME280;12365;43.554;1.388;2022-10-17T09:56:17;100464.19;;;25.97;54.76
24234;BME280;12365;43.554;1.388;2022-10-17T09:58:48;100463.28;;;26.01;55.09
24234;BME280;12365;43.554;1.388;2022-10-17T10:01:23;100481.09;;;26.02;55.04
24234;BME280;12365;43.554;1.388;2022-10-17T10:04:10;100481.97;;;26.03;55.21
24234;BME280;12365;43.554;1.388;2022-10-17T10:06:37;100482.88;;;26.05;54.74
24234;BME280;12365;43.554;1.388;2022-10-17T10:09:04;100488.22;;;26.00;54.68
24234;BME280;12365;43.554;1.388;2022-10-17T10:11:50;100480.25;;;25.96;55.08
24234;BME280;12365;43.554;1.388;2022-10-17T10:14:22;100488.28;;;25.89;55.15
24234;BME280;12365;43.554;1.388;2022-10-17T10:16:49;100490.09;;;25.86;55.18
24234;BME280;12365;43.554;1.388;2022-10-17T10:19:28;100493.63;;;25.85;54.86
24234;BME280;12365;43.554;1.388;2022-10-17T10:22:00;100499.00;;;25.80;55.27
24234;BME280;12365;43.554;1.388;2022-10-17T10:24:26;100497.22;;;25.88;54.88
24234;BME280;12365;43.554;1.388;2022-10-17T10:26:54;100494.53;;;25.78;55.40
24234;BME280;12365;43.554;1.388;2022-10-17T10:29:30;100493.63;;;25.74;55.39
24234;BME280;12365;43.554;1.388;2022-10-17T10:34:58;100507.00;;;25.69;55.39
24234;BME280;12365;43.554;1.388;2022-10-17T10:37:45;100496.31;;;25.65;55.59
24234;BME280;12365;43.554;1.388;2022-10-17T10:42:40;100516.84;;;25.57;55.52
24234;BME280;12365;43.554;1.388;2022-10-17T10:45:23;100520.41;;;25.56;55.79
24234;BME280;12365;43.554;1.388;2022-10-17T10:47:55;100524.88;;;25.54;55.72
24234;BME280;12365;43.554;1.388;2022-10-17T10:59:05;100579.19;;;25.57;55.67
24234;BME280;12365;43.554;1.388;2022-10-17T11:07:23;100595.22;;;25.72;55.51
24234;BME280;12365;43.554;1.388;2022-10-17T11:12:56;100572.97;;;25.97;55.69
24234;BME280;12365;43.554;1.388;2022-10-17T11:15:32;100560.44;;;26.05;55.59
24234;BME280;12365;43.554;1.388;2022-10-17T11:18:05;100557.72;;;26.17;55.32
24234;BME280;12365;43.554;1.388;2022-10-17T11:23:24;100541.69;;;26.23;55.26
24234;BME280;12365;43.554;1.388;2022-10-17T11:25:53;100537.19;;;26.25;55.08
24234;BME280;12365;43.554;1.388;2022-10-17T11:28:22;100542.56;;;26.28;54.96
24234;BME280;12365;43.554;1.388;2022-10-17T11:31:10;100531.81;;;26.30;55.03
24234;BME280;12365;43.554;1.388;2022-10-17T11:33:56;100512.22;;;26.31;54.86
24234;BME280;12365;43.554;1.388;2022-10-17T11:36:28;100494.25;;;26.50;55.04
24234;BME280;12365;43.554;1.388;2022-10-17T11:38:59;100484.13;;;26.96;54.53
24234;BME280;12365;43.554;1.388;2022-10-17T11:44:40;100468.72;;;28.11;53.77
24234;BME280;12365;43.554;1.388;2022-10-17T11:47:24;100466.31;;;28.58;52.81
24234;BME280;12365;43.554;1.388;2022-10-17T11:50:04;100483.69;;;28.92;52.33
24234;BME280;12365;43.554;1.388;2022-10-17T11:52:39;100473.59;;;29.10;51.52
24234;BME280;12365;43.554;1.388;2022-10-17T11:55:15;100476.91;;;29.24;51.72
24234;BME280;12365;43.554;1.388;2022-10-17T12:04:24;100460.31;;;29.49;50.45
24234;BME280;12365;43.554;1.388;2022-10-17T12:12:00;100448.00;;;28.83;50.91
24234;BME280;12365;43.554;1.388;2022-10-17T12:14:47;100446.63;;;28.56;50.97
24234;BME280;12365;43.554;1.388;2022-10-17T12:17:28;100446.91;;;28.36;51.27
24234;BME280;12365;43.554;1.388;2022-10-17T12:25:31;100428.88;;;28.45;51.12
24234;BME280;12365;43.554;1.388;2022-10-17T12:28:16;100414.25;;;28.66;50.98
24234;BME280;12365;43.554;1.388;2022-10-17T12:33:20;100412.75;;;29.03;50.30
24234;BME280;12365;43.554;1.388;2022-10-17T12:35:48;100418.03;;;29.09;50.08
24234;BME280;12365;43.554;1.388;2022-10-17T12:48:12;100406.66;;;29.43;48.97
24234;BME280;12365;43.554;1.388;2022-10-17T12:51:00;100403.84;;;29.49;49.28
24234;BME280;12365;43.554;1.388;2022-10-17T12:53:37;100402.09;;;29.48;49.04
24234;BME280;12365;43.554;1.388;2022-10-17T12:56:06;100411.91;;;29.49;48.80
24234;BME280;12365;43.554;1.388;2022-10-17T12:58:33;100404.81;;;29.45;48.67
24234;BME280;12365;43.554;1.388;2022-10-17T13:00:59;100395.94;;;29.41;48.75
24234;BME280;12365;43.554;1.388;2022-10-17T13:03:27;100399.44;;;29.45;48.32
24234;BME280;12365;43.554;1.388;2022-10-17T13:05:57;100401.22;;;29.46;48.54
24234;BME280;12365;43.554;1.388;2022-10-17T13:08:28;100414.53;;;29.52;48.33
24234;BME280;12365;43.554;1.388;2022-10-17T13:10:55;100412.91;;;29.43;48.15
24234;BME280;12365;43.554;1.388;2022-10-17T13:16:08;100412.34;;;29.27;48.12
24234;BME280;12365;43.554;1.388;2022-10-17T13:18:33;100415.25;;;29.15;48.37
24234;BME280;12365;43.554;1.388;2022-10-17T13:21:25;100419.16;;;28.94;48.67
24234;BME280;12365;43.554;1.388;2022-10-17T13:23:51;100415.78;;;28.81;48.75
24234;BME280;12365;43.554;1.388;2022-10-17T13:26:25;100412.34;;;28.74;48.65
24234;BME280;12365;43.554;1.388;2022-10-17T13:29:22;100415.16;;;28.67;48.78
24234;BME280;12365;43.554;1.388;2022-10-17T13:32:11;100415.16;;;28.65;49.01
24234;BME280;12365;43.554;1.388;2022-10-17T13:34:37;100406.84;;;28.81;48.72
24234;BME280;12365;43.554;1.388;2022-10-17T13:37:04;100416.59;;;28.86;48.45
24234;BME280;12365;43.554;1.388;2022-10-17T13:39:42;100413.94;;;28.85;48.17
24234;BME280;12365;43.554;1.388;2022-10-17T13:42:21;100414.13;;;28.74;48.51
24234;BME280;12365;43.554;1.388;2022-10-17T13:44:47;100395.53;;;28.62;48.58
24234;BME280;12365;43.554;1.388;2022-10-17T13:47:32;100398.34;;;28.52;48.80
24234;BME280;12365;43.554;1.388;2022-10-17T13:50:01;100393.78;;;28.58;48.97
24234;BME280;12365;43.554;1.388;2022-10-17T13:52:27;100395.47;;;28.65;48.74
24234;BME280;12365;43.554;1.388;2022-10-17T13:54:54;100389.16;;;28.69;48.54
24234;BME280;12365;43.554;1.388;2022-10-17T13:57:22;100401.59;;;28.73;48.36
24234;BME280;12365;43.554;1.388;2022-10-17T13:59:54;100399.78;;;28.73;48.32
24234;BME280;12365;43.554;1.388;2022-10-17T14:02:26;100396.28;;;28.70;48.50
24234;BME280;12365;43.554;1.388;2022-10-17T14:05:19;100400.78;;;28.68;48.40
24234;BME280;12365;43.554;1.388;2022-10-17T14:10:24;100405.34;;;28.64;48.62
24234;BME280;12365;43.554;1.388;2022-10-17T14:12:52;100401.84;;;28.58;48.36
24234;BME280;12365;43.554;1.388;2022-10-17T14:15:18;100398.34;;;28.52;48.65
24234;BME280;12365;43.554;1.388;2022-10-17T14:17:53;100404.56;;;28.56;48.76
24234;BME280;12365;43.554;1.388;2022-10-17T14:20:20;100400.03;;;28.60;48.35
24234;BME280;12365;43.554;1.388;2022-10-17T14:22:47;100395.56;;;28.59;48.63
24234;BME280;12365;43.554;1.388;2022-10-17T14:25:33;100378.47;;;28.64;48.61
24234;BME280;12365;43.554;1.388;2022-10-17T14:28:02;100394.53;;;28.66;48.42
24234;BME280;12365;43.554;1.388;2022-10-17T14:30:44;100391.97;;;28.61;48.43
24234;BME280;12365;43.554;1.388;2022-10-17T14:33:36;100395.63;;;28.56;48.17
24234;BME280;12365;43.554;1.388;2022-10-17T14:36:02;100396.59;;;28.50;48.53
24234;BME280;12365;43.554;1.388;2022-10-17T14:38:29;100388.63;;;28.45;48.64
24234;BME280;12365;43.554;1.388;2022-10-17T14:41:05;100404.72;;;28.47;48.71
24234;BME280;12365;43.554;1.388;2022-10-17T14:43:33;100403.78;;;28.48;48.46
24234;BME280;12365;43.554;1.388;2022-10-17T14:45:59;100407.41;;;28.47;48.46
24234;BME280;12365;43.554;1.388;2022-10-17T14:48:27;100405.59;;;28.46;48.26
24234;BME280;12365;43.554;1.388;2022-10-17T14:51:13;100407.41;;;28.44;48.69
24234;BME280;12365;43.554;1.388;2022-10-17T14:53:40;100399.34;;;28.45;48.42